Terminal Aerodrome Forecast
Issued by NWS Charleston, SC

Home | Current Version | Previous Version | Text Only | Print | Product List | Glossary On
Versions: 1 2 3 4 5 6 7 8 9 10 11 12 13 14 15 16 17 18 19 20
000
FTUS42 KCHS 240529
TAFCHS
TAF
KCHS 240529Z 2406/2506 02007KT P6SM SCT060 BKN150
     FM241200 01007KT P6SM SCT100
     FM250200 01003KT P6SM FEW250=

USA.gov is the U.S. government's official web portal to all federal, state and local government web resources and services.